Arjay, Kentucky
Current Conditions -  °F | °C
As of 6:35 AM on Tuesday 21 Oct 2014 (Local Time) from K1A6 Reporting Station
Clear Clear  
Wind Chill: 44°   Ceiling: Unl
Heat Index: 44°   Visibility: 10mi
Dew Point: 44°   Wind: 0mph
Humidity: 99%   Direction: NA
Pressure: 29.98"   Gusts: NA
Location:  36.8°N, 83.65°W
Report Text: K1A6 211035Z AUTO 00000KT 10SM CLR 07/06 A2998 RMK AO2 T00650064
Loading
Personal Weather Stations






























Interactive Weather Map New forecast layout! Learn more

10-Day Weather Forecast

Advertisements
Track Severe Weather on mobile